sensor_id;sensor_type;location;lat;lon;timestamp;pressure;altitude;pressure_sealevel;temperature;humidity
37142;BME280;23041;49.816;20.092;2022-07-29T00:01:01;97990.42;;;17.28;62.80
37142;BME280;23041;49.816;20.092;2022-07-29T00:03:28;97990.76;;;17.26;62.84
37142;BME280;23041;49.816;20.092;2022-07-29T00:05:54;97990.76;;;17.26;62.88
37142;BME280;23041;49.816;20.092;2022-07-29T00:08:20;97991.84;;;17.24;62.93
37142;BME280;23041;49.816;20.092;2022-07-29T00:10:47;97983.86;;;17.07;63.02
37142;BME280;23041;49.816;20.092;2022-07-29T00:13:14;97981.39;;;17.05;63.10
37142;BME280;23041;49.816;20.092;2022-07-29T00:15:40;97997.73;;;17.07;63.16
37142;BME280;23041;49.816;20.092;2022-07-29T00:18:06;97986.48;;;17.06;63.19
37142;BME280;23041;49.816;20.092;2022-07-29T00:20:33;97990.66;;;17.02;63.26
37142;BME280;23041;49.816;20.092;2022-07-29T00:22:59;97986.49;;;17.02;63.34
37142;BME280;23041;49.816;20.092;2022-07-29T00:25:26;97987.89;;;16.97;63.42
37142;BME280;23041;49.816;20.092;2022-07-29T00:27:52;97985.27;;;16.89;63.49
37142;BME280;23041;49.816;20.092;2022-07-29T00:30:18;97983.74;;;16.70;63.59
37142;BME280;23041;49.816;20.092;2022-07-29T00:32:45;97983.75;;;16.65;63.74
37142;BME280;23041;49.816;20.092;2022-07-29T00:35:11;97981.45;;;16.73;63.84
37142;BME280;23041;49.816;20.092;2022-07-29T00:37:56;97982.36;;;16.84;63.91
37142;BME280;23041;49.816;20.092;2022-07-29T00:40:23;97982.36;;;16.84;63.97
37142;BME280;23041;49.816;20.092;2022-07-29T00:42:52;97985.89;;;16.89;64.02
37142;BME280;23041;49.816;20.092;2022-07-29T00:45:19;97988.05;;;16.89;64.05
37142;BME280;23041;49.816;20.092;2022-07-29T00:47:45;97985.44;;;16.90;64.10
37142;BME280;23041;49.816;20.092;2022-07-29T00:50:13;97975.11;;;16.82;64.20
37142;BME280;23041;49.816;20.092;2022-07-29T00:52:41;97979.58;;;16.84;64.26
37142;BME280;23041;49.816;20.092;2022-07-29T00:55:11;97979.09;;;16.99;64.28
37142;BME280;23041;49.816;20.092;2022-07-29T00:57:40;97973.70;;;17.00;64.30
37142;BME280;23041;49.816;20.092;2022-07-29T01:00:11;97972.31;;;17.00;64.36
37142;BME280;23041;49.816;20.092;2022-07-29T01:02:40;97966.78;;;16.95;64.37
37142;BME280;23041;49.816;20.092;2022-07-29T01:05:07;97970.95;;;16.91;64.43
37142;BME280;23041;49.816;20.092;2022-07-29T01:07:34;97958.48;;;16.77;64.50
37142;BME280;23041;49.816;20.092;2022-07-29T01:10:04;97977.42;;;16.83;64.52
37142;BME280;23041;49.816;20.092;2022-07-29T01:12:34;97976.83;;;16.79;64.53
37142;BME280;23041;49.816;20.092;2022-07-29T01:15:03;97981.61;;;16.74;64.55
37142;BME280;23041;49.816;20.092;2022-07-29T01:17:44;97975.89;;;16.78;64.62
37142;BME280;23041;49.816;20.092;2022-07-29T01:29:32;97960.65;;;16.64;64.92
37142;BME280;23041;49.816;20.092;2022-07-29T01:32:19;97956.50;;;16.59;64.95
37142;BME280;23041;49.816;20.092;2022-07-29T01:35:36;97959.71;;;16.49;64.96
37142;BME280;23041;49.816;20.092;2022-07-29T01:37:43;97956.47;;;16.46;65.05
37142;BME280;23041;49.816;20.092;2022-07-29T01:40:22;97949.86;;;16.43;65.12
37142;BME280;23041;49.816;20.092;2022-07-29T01:42:55;97952.61;;;16.34;65.19
37142;BME280;23041;49.816;20.092;2022-07-29T01:48:38;97953.82;;;16.15;65.37
37142;BME280;23041;49.816;20.092;2022-07-29T01:51:10;97963.54;;;16.19;65.47
37142;BME280;23041;49.816;20.092;2022-07-29T01:53:44;97957.23;;;16.19;65.53
37142;BME280;23041;49.816;20.092;2022-07-29T01:56:13;97961.55;;;16.20;65.60
37142;BME280;23041;49.816;20.092;2022-07-29T01:58:43;97958.30;;;16.17;65.68
37142;BME280;23041;49.816;20.092;2022-07-29T02:01:11;97962.90;;;16.15;65.73
37142;BME280;23041;49.816;20.092;2022-07-29T02:03:39;97962.28;;;16.11;65.78
37142;BME280;23041;49.816;20.092;2022-07-29T02:06:09;97958.09;;;15.93;65.90
37142;BME280;23041;49.816;20.092;2022-07-29T02:08:38;97958.26;;;15.94;65.99
37142;BME280;23041;49.816;20.092;2022-07-29T02:11:06;97961.35;;;16.01;66.02
37142;BME280;23041;49.816;20.092;2022-07-29T02:13:34;97959.48;;;15.98;66.06
37142;BME280;23041;49.816;20.092;2022-07-29T02:16:05;97955.20;;;15.97;66.11
37142;BME280;23041;49.816;20.092;2022-07-29T02:18:33;97950.28;;;15.96;66.17
37142;BME280;23041;49.816;20.092;2022-07-29T02:21:03;97955.94;;;15.92;66.24
37142;BME280;23041;49.816;20.092;2022-07-29T02:23:31;97939.45;;;15.75;66.31
37142;BME280;23041;49.816;20.092;2022-07-29T02:25:59;97940.38;;;15.72;66.41
37142;BME280;23041;49.816;20.092;2022-07-29T02:28:27;97949.75;;;15.79;66.47
37142;BME280;23041;49.816;20.092;2022-07-29T02:31:00;97948.84;;;15.78;66.50
37142;BME280;23041;49.816;20.092;2022-07-29T02:33:30;97947.76;;;15.80;66.54
37142;BME280;23041;49.816;20.092;2022-07-29T02:35:58;97947.91;;;15.76;66.61
37142;BME280;23041;49.816;20.092;2022-07-29T02:38:27;97944.03;;;15.65;66.62
37142;BME280;23041;49.816;20.092;2022-07-29T02:41:15;97937.11;;;15.60;66.65
37142;BME280;23041;49.816;20.092;2022-07-29T02:43:45;97935.92;;;15.44;66.70
37142;BME280;23041;49.816;20.092;2022-07-29T02:46:24;97934.98;;;15.38;66.80
37142;BME280;23041;49.816;20.092;2022-07-29T02:51:36;97932.19;;;15.29;66.84
37142;BME280;23041;49.816;20.092;2022-07-29T02:54:07;97931.23;;;15.23;66.88
37142;BME280;23041;49.816;20.092;2022-07-29T02:56:35;97935.31;;;15.09;66.93
37142;BME280;23041;49.816;20.092;2022-07-29T02:59:06;97932.08;;;15.06;67.01
37142;BME280;23041;49.816;20.092;2022-07-29T03:01:38;97921.44;;;14.95;67.08
37142;BME280;23041;49.816;20.092;2022-07-29T03:04:07;97918.51;;;14.94;67.19
37142;BME280;23041;49.816;20.092;2022-07-29T03:06:38;97928.02;;;14.93;67.28
37142;BME280;23041;49.816;20.092;2022-07-29T03:09:07;97932.18;;;14.98;67.36
37142;BME280;23041;49.816;20.092;2022-07-29T03:11:34;97934.96;;;15.02;67.37
37142;BME280;23041;49.816;20.092;2022-07-29T03:14:01;97926.53;;;15.01;67.44
37142;BME280;23041;49.816;20.092;2022-07-29T03:16:28;97922.85;;;15.04;67.50
37142;BME280;23041;49.816;20.092;2022-07-29T03:18:57;97928.23;;;15.08;67.56
37142;BME280;23041;49.816;20.092;2022-07-29T03:21:24;97924.09;;;15.08;67.59
37142;BME280;23041;49.816;20.092;2022-07-29T03:23:50;97915.91;;;14.95;67.66
37142;BME280;23041;49.816;20.092;2022-07-29T03:26:17;97919.58;;;14.97;67.76
37142;BME280;23041;49.816;20.092;2022-07-29T03:28:43;97923.77;;;15.01;67.79
37142;BME280;23041;49.816;20.092;2022-07-29T03:31:09;97921.63;;;15.05;67.81
37142;BME280;23041;49.816;20.092;2022-07-29T03:33:35;97923.31;;;15.07;67.80
37142;BME280;23041;49.816;20.092;2022-07-29T03:36:02;97926.73;;;15.11;67.82
37142;BME280;23041;49.816;20.092;2022-07-29T03:38:30;97924.43;;;15.15;67.83
37142;BME280;23041;49.816;20.092;2022-07-29T03:41:03;97925.86;;;15.19;67.86
37142;BME280;23041;49.816;20.092;2022-07-29T03:43:34;97916.73;;;15.09;67.89
37142;BME280;23041;49.816;20.092;2022-07-29T03:46:03;97915.34;;;15.09;67.98
37142;BME280;23041;49.816;20.092;2022-07-29T03:48:34;97921.22;;;15.16;68.03
37142;BME280;23041;49.816;20.092;2022-07-29T03:51:03;97928.66;;;15.33;68.13
37142;BME280;23041;49.816;20.092;2022-07-29T03:53:31;97936.70;;;15.44;68.18
37142;BME280;23041;49.816;20.092;2022-07-29T03:56:00;97933.33;;;15.49;68.19
37142;BME280;23041;49.816;20.092;2022-07-29T03:58:28;97934.02;;;15.54;68.20
37142;BME280;23041;49.816;20.092;2022-07-29T04:00:56;97939.09;;;15.55;68.23
37142;BME280;23041;49.816;20.092;2022-07-29T04:03:23;97938.62;;;15.61;68.27
37142;BME280;23041;49.816;20.092;2022-07-29T04:06:04;97935.84;;;15.52;68.35
37142;BME280;23041;49.816;20.092;2022-07-29T04:08:33;97939.57;;;15.67;68.41
37142;BME280;23041;49.816;20.092;2022-07-29T04:11:00;97938.40;;;15.91;68.49
37142;BME280;23041;49.816;20.092;2022-07-29T04:13:28;97942.91;;;16.11;68.52
37142;BME280;23041;49.816;20.092;2022-07-29T04:15:54;97943.53;;;16.33;68.55
37142;BME280;23041;49.816;20.092;2022-07-29T04:18:20;97936.14;;;16.58;68.56
37142;BME280;23041;49.816;20.092;2022-07-29T04:20:47;97933.86;;;16.79;68.55
37142;BME280;23041;49.816;20.092;2022-07-29T04:23:13;97920.30;;;16.86;68.53
37142;BME280;23041;49.816;20.092;2022-07-29T04:25:41;97918.86;;;16.99;68.53
37142;BME280;23041;49.816;20.092;2022-07-29T04:28:09;97919.13;;;17.10;68.50
37142;BME280;23041;49.816;20.092;2022-07-29T04:30:36;97933.25;;;17.31;68.47
37142;BME280;23041;49.816;20.092;2022-07-29T04:33:05;97932.28;;;17.43;68.37
37142;BME280;23041;49.816;20.092;2022-07-29T04:35:36;97933.77;;;17.53;68.29
37142;BME280;23041;49.816;20.092;2022-07-29T04:38:04;97933.13;;;17.58;68.17
37142;BME280;23041;49.816;20.092;2022-07-29T04:40:31;97928.07;;;17.61;68.04
37142;BME280;23041;49.816;20.092;2022-07-29T04:42:59;97932.95;;;17.71;67.90
37142;BME280;23041;49.816;20.092;2022-07-29T04:45:28;97928.78;;;17.71;67.82
37142;BME280;23041;49.816;20.092;2022-07-29T04:47:54;97923.16;;;17.84;67.76
37142;BME280;23041;49.816;20.092;2022-07-29T04:50:21;97924.12;;;18.05;67.68
37142;BME280;23041;49.816;20.092;2022-07-29T04:52:48;97929.56;;;18.19;67.59
37142;BME280;23041;49.816;20.092;2022-07-29T04:55:14;97935.50;;;18.31;67.46
37142;BME280;23041;49.816;20.092;2022-07-29T04:57:40;97924.95;;;18.40;67.32
37142;BME280;23041;49.816;20.092;2022-07-29T05:00:08;97931.53;;;18.47;67.16
37142;BME280;23041;49.816;20.092;2022-07-29T05:02:35;97934.70;;;18.59;66.99
37142;BME280;23041;49.816;20.092;2022-07-29T05:05:02;97924.67;;;18.57;66.85
37142;BME280;23041;49.816;20.092;2022-07-29T05:07:28;97919.84;;;18.62;66.72
37142;BME280;23041;49.816;20.092;2022-07-29T05:09:55;97923.27;;;18.76;66.58
37142;BME280;23041;49.816;20.092;2022-07-29T05:12:23;97923.47;;;18.87;66.41
37142;BME280;23041;49.816;20.092;2022-07-29T05:14:50;97925.52;;;18.97;66.25
37142;BME280;23041;49.816;20.092;2022-07-29T05:17:16;97924.81;;;19.06;66.12
37142;BME280;23041;49.816;20.092;2022-07-29T05:19:43;97922.55;;;19.15;65.98
37142;BME280;23041;49.816;20.092;2022-07-29T05:22:09;97920.92;;;19.23;65.80
37142;BME280;23041;49.816;20.092;2022-07-29T05:24:36;97913.13;;;19.27;65.68
37142;BME280;23041;49.816;20.092;2022-07-29T05:27:02;97908.03;;;19.40;65.56
37142;BME280;23041;49.816;20.092;2022-07-29T05:29:31;97916.41;;;19.65;65.41
37142;BME280;23041;49.816;20.092;2022-07-29T05:31:58;97916.93;;;19.84;65.18
37142;BME280;23041;49.816;20.092;2022-07-29T05:34:24;97911.28;;;19.98;64.96
37142;BME280;23041;49.816;20.092;2022-07-29T05:36:50;97915.13;;;20.11;64.74
37142;BME280;23041;49.816;20.092;2022-07-29T05:39:17;97917.20;;;20.26;64.53
37142;BME280;23041;49.816;20.092;2022-07-29T05:41:43;97923.08;;;20.38;64.32
37142;BME280;23041;49.816;20.092;2022-07-29T05:44:09;97918.91;;;20.49;64.12
37142;BME280;23041;49.816;20.092;2022-07-29T05:46:37;97915.61;;;20.60;63.89
37142;BME280;23041;49.816;20.092;2022-07-29T05:49:03;97899.84;;;20.57;63.67
37142;BME280;23041;49.816;20.092;2022-07-29T05:51:30;97901.87;;;20.67;63.54
37142;BME280;23041;49.816;20.092;2022-07-29T05:53:56;97908.52;;;20.85;63.35
37142;BME280;23041;49.816;20.092;2022-07-29T05:56:22;97913.91;;;20.94;63.12
37142;BME280;23041;49.816;20.092;2022-07-29T05:58:49;97913.88;;;21.04;62.88
37142;BME280;23041;49.816;20.092;2022-07-29T06:01:15;97910.91;;;21.24;62.06
37142;BME280;23041;49.816;20.092;2022-07-29T06:03:41;97910.91;;;21.24;62.06
37142;BME280;23041;49.816;20.092;2022-07-29T06:06:09;97910.84;;;21.34;62.29
37142;BME280;23041;49.816;20.092;2022-07-29T06:08:36;97906.77;;;21.45;62.11
37142;BME280;23041;49.816;20.092;2022-07-29T06:11:04;97906.53;;;21.70;62.06
37142;BME280;23041;49.816;20.092;2022-07-29T06:13:30;97906.53;;;21.70;62.06
37142;BME280;23041;49.816;20.092;2022-07-29T06:15:57;97903.91;;;21.76;61.52
37142;BME280;23041;49.816;20.092;2022-07-29T06:18:23;97901.25;;;21.77;61.22
37142;BME280;23041;49.816;20.092;2022-07-29T06:20:50;97912.19;;;21.96;61.11
37142;BME280;23041;49.816;20.092;2022-07-29T06:23:18;97899.01;;;22.03;60.95
37142;BME280;23041;49.816;20.092;2022-07-29T06:25:45;97913.30;;;22.16;60.62
37142;BME280;23041;49.816;20.092;2022-07-29T06:28:11;97913.98;;;22.26;60.37
37142;BME280;23041;49.816;20.092;2022-07-29T06:30:38;97906.60;;;22.29;60.17
37142;BME280;23041;49.816;20.092;2022-07-29T06:33:05;97917.72;;;22.39;59.99
37142;BME280;23041;49.816;20.092;2022-07-29T06:35:35;97920.71;;;22.62;59.78
37142;BME280;23041;49.816;20.092;2022-07-29T06:38:03;97916.22;;;22.87;59.55
37142;BME280;23041;49.816;20.092;2022-07-29T06:40:29;97918.55;;;23.11;59.21
37142;BME280;23041;49.816;20.092;2022-07-29T06:43:14;97924.16;;;23.50;58.96
37142;BME280;23041;49.816;20.092;2022-07-29T06:45:41;97921.40;;;23.95;58.56
37142;BME280;23041;49.816;20.092;2022-07-29T06:48:09;97921.52;;;24.48;58.17
37142;BME280;23041;49.816;20.092;2022-07-29T06:50:35;97920.73;;;24.99;57.64
37142;BME280;23041;49.816;20.092;2022-07-29T06:53:02;97919.45;;;25.66;57.07
37142;BME280;23041;49.816;20.092;2022-07-29T06:55:28;97912.96;;;26.25;56.41
37142;BME280;23041;49.816;20.092;2022-07-29T06:57:55;97916.95;;;26.72;55.58
37142;BME280;23041;49.816;20.092;2022-07-29T07:00:23;97915.64;;;27.81;54.90
37142;BME280;23041;49.816;20.092;2022-07-29T07:02:50;97915.06;;;29.09;54.06
37142;BME280;23041;49.816;20.092;2022-07-29T07:05:17;97917.50;;;30.16;52.68
37142;BME280;23041;49.816;20.092;2022-07-29T07:07:43;97922.53;;;31.33;51.48
37142;BME280;23041;49.816;20.092;2022-07-29T07:10:09;97926.45;;;32.44;50.12
37142;BME280;23041;49.816;20.092;2022-07-29T07:12:36;97927.50;;;33.69;48.65
37142;BME280;23041;49.816;20.092;2022-07-29T07:15:03;97925.56;;;34.72;46.91
37142;BME280;23041;49.816;20.092;2022-07-29T07:17:30;97925.34;;;34.96;45.04
37142;BME280;23041;49.816;20.092;2022-07-29T07:19:56;97927.13;;;35.27;43.48
37142;BME280;23041;49.816;20.092;2022-07-29T07:22:22;97925.19;;;35.48;41.79
37142;BME280;23041;49.816;20.092;2022-07-29T07:24:49;97930.91;;;35.84;40.61
37142;BME280;23041;49.816;20.092;2022-07-29T07:27:15;97930.94;;;36.22;39.63
37142;BME280;23041;49.816;20.092;2022-07-29T07:29:41;97929.75;;;36.34;38.40
37142;BME280;23041;49.816;20.092;2022-07-29T07:32:08;97941.14;;;37.21;37.35
37142;BME280;23041;49.816;20.092;2022-07-29T07:34:34;97929.31;;;37.66;36.33
37142;BME280;23041;49.816;20.092;2022-07-29T07:37:00;97934.91;;;37.04;35.18
37142;BME280;23041;49.816;20.092;2022-07-29T07:39:27;97934.39;;;36.59;34.59
37142;BME280;23041;49.816;20.092;2022-07-29T07:41:54;97926.72;;;37.00;34.23
37142;BME280;23041;49.816;20.092;2022-07-29T07:44:20;97924.34;;;37.46;33.56
37142;BME280;23041;49.816;20.092;2022-07-29T07:46:47;97922.72;;;37.74;32.92
37142;BME280;23041;49.816;20.092;2022-07-29T07:49:13;97930.61;;;37.95;32.37
37142;BME280;23041;49.816;20.092;2022-07-29T07:51:40;97929.91;;;38.80;32.06
37142;BME280;23041;49.816;20.092;2022-07-29T07:54:06;97927.52;;;39.32;31.21
37142;BME280;23041;49.816;20.092;2022-07-29T07:56:32;97924.57;;;39.88;30.70
37142;BME280;23041;49.816;20.092;2022-07-29T07:58:59;97927.96;;;40.32;30.15
37142;BME280;23041;49.816;20.092;2022-07-29T08:01:25;97923.14;;;40.73;29.46
37142;BME280;23041;49.816;20.092;2022-07-29T08:03:51;97928.84;;;40.85;28.93
37142;BME280;23041;49.816;20.092;2022-07-29T08:06:18;97929.84;;;41.67;28.60
37142;BME280;23041;49.816;20.092;2022-07-29T08:08:44;97925.40;;;41.91;27.95
37142;BME280;23041;49.816;20.092;2022-07-29T08:11:10;97920.50;;;41.15;27.22
37142;BME280;23041;49.816;20.092;2022-07-29T08:13:37;97924.80;;;40.27;26.98
37142;BME280;23041;49.816;20.092;2022-07-29T08:16:05;97926.36;;;40.06;27.02
37142;BME280;23041;49.816;20.092;2022-07-29T08:18:40;97917.77;;;40.30;26.85
37142;BME280;23041;49.816;20.092;2022-07-29T08:21:07;97928.39;;;40.64;26.71
37142;BME280;23041;49.816;20.092;2022-07-29T08:23:33;97922.92;;;41.59;26.55
37142;BME280;23041;49.816;20.092;2022-07-29T08:26:09;97927.73;;;42.51;25.90
37142;BME280;23041;49.816;20.092;2022-07-29T08:28:38;97923.95;;;42.75;25.23
37142;BME280;23041;49.816;20.092;2022-07-29T08:31:05;97927.86;;;42.97;24.65
37142;BME280;23041;49.816;20.092;2022-07-29T08:33:32;97928.72;;;42.99;24.13
37142;BME280;23041;49.816;20.092;2022-07-29T08:35:59;97925.23;;;43.17;23.96
37142;BME280;23041;49.816;20.092;2022-07-29T08:38:25;97926.05;;;43.81;23.66
37142;BME280;23041;49.816;20.092;2022-07-29T08:40:53;97922.05;;;44.37;23.23
37142;BME280;23041;49.816;20.092;2022-07-29T08:43:19;97923.70;;;44.94;22.93
37142;BME280;23041;49.816;20.092;2022-07-29T08:45:52;97915.30;;;45.19;22.63
37142;BME280;23041;49.816;20.092;2022-07-29T08:48:18;97923.91;;;45.73;22.36
37142;BME280;23041;49.816;20.092;2022-07-29T08:50:48;97920.16;;;46.09;21.88
37142;BME280;23041;49.816;20.092;2022-07-29T08:53:22;97915.05;;;46.50;21.35
37142;BME280;23041;49.816;20.092;2022-07-29T08:55:53;97919.20;;;47.09;20.94
37142;BME280;23041;49.816;20.092;2022-07-29T08:58:21;97919.09;;;47.77;20.25
37142;BME280;23041;49.816;20.092;2022-07-29T09:00:52;97914.58;;;48.51;19.71
37142;BME280;23041;49.816;20.092;2022-07-29T09:03:22;97915.89;;;49.04;19.18
37142;BME280;23041;49.816;20.092;2022-07-29T09:05:50;97907.17;;;49.71;18.76
37142;BME280;23041;49.816;20.092;2022-07-29T09:08:17;97903.89;;;50.25;18.33
37142;BME280;23041;49.816;20.092;2022-07-29T09:10:45;97912.66;;;50.68;17.91
37142;BME280;23041;49.816;20.092;2022-07-29T09:13:11;97905.84;;;50.97;17.37
37142;BME280;23041;49.816;20.092;2022-07-29T09:15:37;97894.84;;;50.93;16.93
37142;BME280;23041;49.816;20.092;2022-07-29T09:18:04;97895.89;;;50.69;16.70
37142;BME280;23041;49.816;20.092;2022-07-29T09:20:30;97895.99;;;50.75;16.54
37142;BME280;23041;49.816;20.092;2022-07-29T09:23:15;97896.97;;;50.08;16.36
37142;BME280;23041;49.816;20.092;2022-07-29T09:25:41;97903.56;;;49.38;16.30
37142;BME280;23041;49.816;20.092;2022-07-29T09:28:10;97907.91;;;49.37;16.38
37142;BME280;23041;49.816;20.092;2022-07-29T09:30:53;97900.79;;;49.78;16.31
37142;BME280;23041;49.816;20.092;2022-07-29T09:33:23;97902.20;;;50.52;16.26
37142;BME280;23041;49.816;20.092;2022-07-29T09:36:07;97894.60;;;50.37;15.91
37142;BME280;23041;49.816;20.092;2022-07-29T09:38:35;97899.57;;;50.30;15.83
37142;BME280;23041;49.816;20.092;2022-07-29T09:41:04;97893.88;;;49.98;15.74
37142;BME280;23041;49.816;20.092;2022-07-29T09:43:32;97887.38;;;50.02;15.79
37142;BME280;23041;49.816;20.092;2022-07-29T09:46:11;97890.64;;;50.19;15.81
37142;BME280;23041;49.816;20.092;2022-07-29T09:48:38;97885.20;;;50.43;15.76
37142;BME280;23041;49.816;20.092;2022-07-29T09:51:05;97881.27;;;50.26;15.50
37142;BME280;23041;49.816;20.092;2022-07-29T09:53:36;97878.12;;;50.55;15.71
37142;BME280;23041;49.816;20.092;2022-07-29T09:56:04;97869.73;;;50.78;15.50
37142;BME280;23041;49.816;20.092;2022-07-29T09:58:31;97861.57;;;49.87;15.41
37142;BME280;23041;49.816;20.092;2022-07-29T10:01:01;97867.74;;;48.71;15.64
37142;BME280;23041;49.816;20.092;2022-07-29T10:03:28;97868.68;;;48.22;16.05
37142;BME280;23041;49.816;20.092;2022-07-29T10:08:35;97861.20;;;46.90;16.27
37142;BME280;23041;49.816;20.092;2022-07-29T10:11:14;97857.96;;;45.74;16.82
37142;BME280;23041;49.816;20.092;2022-07-29T10:13:44;97858.77;;;45.18;17.38
37142;BME280;23041;49.816;20.092;2022-07-29T10:16:13;97851.78;;;43.52;17.82
37142;BME280;23041;49.816;20.092;2022-07-29T10:18:44;97847.31;;;42.15;18.63
37142;BME280;23041;49.816;20.092;2022-07-29T10:21:13;97844.23;;;41.29;19.40
37142;BME280;23041;49.816;20.092;2022-07-29T10:23:39;97841.80;;;40.60;20.23
37142;BME280;23041;49.816;20.092;2022-07-29T10:26:07;97845.55;;;39.88;20.84
37142;BME280;23041;49.816;20.092;2022-07-29T10:28:34;97840.12;;;39.24;21.53
37142;BME280;23041;49.816;20.092;2022-07-29T10:31:04;97835.73;;;38.99;22.17
37142;BME280;23041;49.816;20.092;2022-07-29T10:39:19;97846.07;;;36.72;23.74
37142;BME280;23041;49.816;20.092;2022-07-29T10:42:09;97835.91;;;36.61;24.36
37142;BME280;23041;49.816;20.092;2022-07-29T10:44:42;97839.31;;;36.68;25.04
37142;BME280;23041;49.816;20.092;2022-07-29T10:47:21;97833.69;;;36.30;25.28
37142;BME280;23041;49.816;20.092;2022-07-29T10:55:38;97826.69;;;35.66;26.46
37142;BME280;23041;49.816;20.092;2022-07-29T11:00:48;97833.26;;;35.13;26.99
37142;BME280;23041;49.816;20.092;2022-07-29T11:06:17;97830.02;;;34.11;27.73
37142;BME280;23041;49.816;20.092;2022-07-29T11:08:43;97824.77;;;33.90;28.25
37142;BME280;23041;49.816;20.092;2022-07-29T11:13:52;97816.05;;;33.55;29.04
37142;BME280;23041;49.816;20.092;2022-07-29T11:16:21;97816.50;;;33.27;29.39
37142;BME280;23041;49.816;20.092;2022-07-29T11:21:43;97813.08;;;32.87;30.04
37142;BME280;23041;49.816;20.092;2022-07-29T11:24:14;97813.86;;;32.96;30.44
37142;BME280;23041;49.816;20.092;2022-07-29T11:29:49;97801.73;;;32.96;30.73
37142;BME280;23041;49.816;20.092;2022-07-29T11:32:21;97809.30;;;32.85;30.94
37142;BME280;23041;49.816;20.092;2022-07-29T11:37:37;97797.09;;;33.08;31.24
37142;BME280;23041;49.816;20.092;2022-07-29T11:42:39;97798.89;;;33.37;31.38
37142;BME280;23041;49.816;20.092;2022-07-29T11:45:18;97792.30;;;33.43;31.39
37142;BME280;23041;49.816;20.092;2022-07-29T11:47:49;97792.44;;;33.36;31.46
37142;BME280;23041;49.816;20.092;2022-07-29T11:50:31;97792.32;;;33.27;31.47
37142;BME280;23041;49.816;20.092;2022-07-29T11:53:01;97789.31;;;33.08;31.54
37142;BME280;23041;49.816;20.092;2022-07-29T11:55:30;97795.38;;;32.96;31.55
37142;BME280;23041;49.816;20.092;2022-07-29T11:57:59;97787.41;;;32.86;31.67
37142;BME280;23041;49.816;20.092;2022-07-29T12:00:37;97790.17;;;32.69;31.71
37142;BME280;23041;49.816;20.092;2022-07-29T12:03:08;97791.90;;;32.80;31.91
37142;BME280;23041;49.816;20.092;2022-07-29T12:05:42;97789.55;;;33.03;32.14
37142;BME280;23041;49.816;20.092;2022-07-29T12:08:17;97787.45;;;32.95;32.04
37142;BME280;23041;49.816;20.092;2022-07-29T12:10:46;97787.12;;;32.99;32.08
37142;BME280;23041;49.816;20.092;2022-07-29T12:13:15;97789.73;;;33.05;32.09
37142;BME280;23041;49.816;20.092;2022-07-29T12:15:54;97778.30;;;33.12;32.07
37142;BME280;23041;49.816;20.092;2022-07-29T12:18:23;97778.34;;;33.21;32.20
37142;BME280;23041;49.816;20.092;2022-07-29T12:20:58;97776.67;;;33.18;32.01
37142;BME280;23041;49.816;20.092;2022-07-29T12:23:27;97771.48;;;32.99;31.95
37142;BME280;23041;49.816;20.092;2022-07-29T12:25:54;97764.15;;;33.13;32.04
37142;BME280;23041;49.816;20.092;2022-07-29T12:28:21;97764.91;;;33.14;31.99
37142;BME280;23041;49.816;20.092;2022-07-29T12:30:49;97765.99;;;33.10;32.01
37142;BME280;23041;49.816;20.092;2022-07-29T12:33:27;97763.56;;;33.06;32.00
37142;BME280;23041;49.816;20.092;2022-07-29T12:36:00;97763.11;;;33.01;32.10
37142;BME280;23041;49.816;20.092;2022-07-29T12:38:28;97753.59;;;33.23;32.30
37142;BME280;23041;49.816;20.092;2022-07-29T12:40:54;97752.34;;;33.33;32.18
37142;BME280;23041;49.816;20.092;2022-07-29T12:43:22;97749.41;;;33.24;32.09
37142;BME280;23041;49.816;20.092;2022-07-29T12:45:54;97743.30;;;33.27;32.08
37142;BME280;23041;49.816;20.092;2022-07-29T12:48:37;97742.17;;;33.47;32.14
37142;BME280;23041;49.816;20.092;2022-07-29T12:51:06;97740.91;;;33.58;31.98
37142;BME280;23041;49.816;20.092;2022-07-29T12:53:40;97737.89;;;33.56;31.90
37142;BME280;23041;49.816;20.092;2022-07-29T12:56:05;97726.86;;;33.43;31.89
37142;BME280;23041;49.816;20.092;2022-07-29T12:58:40;97725.33;;;33.33;31.90
37142;BME280;23041;49.816;20.092;2022-07-29T13:09:18;97716.14;;;33.59;32.22
37142;BME280;23041;49.816;20.092;2022-07-29T13:11:50;97721.98;;;33.44;32.12
37142;BME280;23041;49.816;20.092;2022-07-29T13:14:35;97717.70;;;33.27;32.17
37142;BME280;23041;49.816;20.092;2022-07-29T13:17:07;97710.75;;;32.96;32.14
37142;BME280;23041;49.816;20.092;2022-07-29T13:19:49;97710.48;;;32.84;32.23
37142;BME280;23041;49.816;20.092;2022-07-29T13:22:18;97718.04;;;32.89;32.45
37142;BME280;23041;49.816;20.092;2022-07-29T13:24:58;97714.73;;;32.84;32.58
37142;BME280;23041;49.816;20.092;2022-07-29T13:27:29;97707.48;;;32.66;32.55
37142;BME280;23041;49.816;20.092;2022-07-29T13:29:59;97703.19;;;32.57;32.66
37142;BME280;23041;49.816;20.092;2022-07-29T13:32:28;97708.77;;;32.56;32.81
37142;BME280;23041;49.816;20.092;2022-07-29T13:34:56;97705.03;;;32.62;32.90
37142;BME280;23041;49.816;20.092;2022-07-29T13:37:25;97699.17;;;32.60;32.77
37142;BME280;23041;49.816;20.092;2022-07-29T13:39:54;97689.48;;;32.38;32.58
37142;BME280;23041;49.816;20.092;2022-07-29T13:42:22;97685.64;;;32.35;32.88
37142;BME280;23041;49.816;20.092;2022-07-29T13:44:49;97679.17;;;32.51;33.15
37142;BME280;23041;49.816;20.092;2022-07-29T13:47:21;97682.53;;;32.57;33.24
37142;BME280;23041;49.816;20.092;2022-07-29T13:49:48;97679.50;;;32.46;33.14
37142;BME280;23041;49.816;20.092;2022-07-29T13:52:15;97676.22;;;32.25;33.15
37142;BME280;23041;49.816;20.092;2022-07-29T13:54:41;97669.53;;;32.21;33.41
37142;BME280;23041;49.816;20.092;2022-07-29T13:57:09;97676.06;;;32.23;33.42